Time;durP1;ratioP1;P1;durP2;ratioP2;P2;SDS_P1;SDS_P2;PMS_P1;PMS_P2;Temp;Humidity;BMP_temperature;BMP_pressure;BME280_temperature;BME280_humidity;BME280_pressure;Samples;Min_cycle;Max_cycle;Signal;HPM_P1;HPM_P2
2022/08/23 00:00:36;;;;;;;2.80;2.60;;;20.10;1.00;;;;;;5028226;28;20432;-80
2022/08/23 00:03:18;;;;;;;6.20;2.80;;;20.00;1.00;;;;;;5029667;28;20404;-80
2022/08/23 00:05:48;;;;;;;4.40;3.00;;;19.90;1.00;;;;;;5014544;28;20446;-81
2022/08/23 00:08:18;;;;;;;7.10;3.47;;;19.80;1.00;;;;;;5014949;28;20461;-80
2022/08/23 00:10:48;;;;;;;5.70;3.00;;;19.70;1.00;;;;;;5027063;28;20458;-80
2022/08/23 00:13:24;;;;;;;5.33;3.10;;;19.70;1.00;;;;;;5023421;28;20481;-80
2022/08/23 00:15:49;;;;;;;8.20;3.20;;;19.60;1.00;;;;;;5017284;28;20485;-80
2022/08/23 00:18:53;;;;;;;4.67;2.87;;;19.50;1.00;;;;;;5034230;28;20422;-80
2022/08/23 00:21:24;;;;;;;11.03;3.70;;;19.50;1.00;;;;;;5017268;28;20291;-79
2022/08/23 00:23:50;;;;;;;8.73;3.70;;;19.40;1.00;;;;;;5027766;28;20765;-72
2022/08/23 00:26:16;;;;;;;5.70;2.83;;;19.40;1.00;;;;;;5020027;28;20454;-72
2022/08/23 00:28:42;;;;;;;7.03;3.07;;;19.30;1.00;;;;;;5026254;28;20188;-72
2022/08/23 00:31:08;;;;;;;3.90;2.73;;;19.20;1.00;;;;;;5022507;28;20861;-72
2022/08/23 00:33:34;;;;;;;3.67;2.80;;;19.10;1.00;;;;;;5018397;28;20518;-72
2022/08/23 00:36:00;;;;;;;3.73;2.50;;;19.10;1.00;;;;;;5020871;28;20646;-72
2022/08/23 00:38:25;;;;;;;3.33;2.70;;;19.00;1.00;;;;;;5016690;28;20424;-80
2022/08/23 00:40:55;;;;;;;4.80;2.57;;;19.00;1.00;;;;;;5032999;28;20370;-80
2022/08/23 00:49:21;;;;;;;4.10;2.90;;;18.80;1.00;;;;;;5027117;28;20377;-79
2022/08/23 00:52:11;;;;;;;7.37;3.00;;;18.70;1.00;;;;;;5016680;28;20437;-80
2022/08/23 00:55:12;;;;;;;3.17;2.87;;;18.70;1.00;;;;;;5030574;28;20498;-80
2022/08/23 00:57:54;;;;;;;3.40;2.80;;;18.60;1.00;;;;;;5024644;28;20446;-79
2022/08/23 01:00:41;;;;;;;5.43;2.40;;;18.60;1.00;;;;;;5023587;28;20430;-80
2022/08/23 01:03:20;;;;;;;5.50;2.70;;;18.60;1.00;;;;;;5020886;28;20409;-80
2022/08/23 01:06:11;;;;;;;7.20;3.20;;;18.50;1.00;;;;;;5020240;28;20426;-80
2022/08/23 01:08:39;;;;;;;6.60;2.90;;;18.50;1.00;;;;;;5014170;28;20777;-72
2022/08/23 01:11:12;;;;;;;4.20;2.80;;;18.40;1.00;;;;;;5027797;28;20888;-72
2022/08/23 01:13:54;;;;;;;10.33;2.77;;;18.40;1.00;;;;;;5013849;28;20902;-72
2022/08/23 01:16:33;;;;;;;5.93;2.80;;;18.40;1.00;;;;;;5021426;28;20528;-72
2022/08/23 01:19:02;;;;;;;3.23;2.93;;;18.40;1.00;;;;;;5024597;28;20504;-72
2022/08/23 01:21:38;;;;;;;5.43;2.87;;;18.30;1.00;;;;;;5019932;28;20449;-72
2022/08/23 01:24:05;;;;;;;9.40;3.00;;;18.30;1.00;;;;;;5018884;28;20420;-72
2022/08/23 01:26:34;;;;;;;4.13;2.83;;;18.20;1.00;;;;;;5027309;28;20917;-72
2022/08/23 01:29:02;;;;;;;3.20;2.70;;;18.20;1.00;;;;;;5028565;28;20928;-73
2022/08/23 01:31:28;;;;;;;3.80;2.90;;;18.20;1.00;;;;;;5021264;28;20463;-72
2022/08/23 01:33:58;;;;;;;4.63;2.77;;;18.10;1.00;;;;;;5025780;28;20805;-72
2022/08/23 01:36:25;;;;;;;4.60;2.97;;;18.10;1.00;;;;;;5019883;28;20448;-72
2022/08/23 01:38:51;;;;;;;3.90;2.67;;;18.10;1.00;;;;;;5019587;28;20429;-72
2022/08/23 01:41:18;;;;;;;3.40;2.70;;;18.00;1.00;;;;;;5040237;28;20424;-73
2022/08/23 01:43:44;;;;;;;8.90;3.13;;;18.00;1.00;;;;;;5025216;28;20446;-72
2022/08/23 01:46:13;;;;;;;4.20;2.80;;;17.90;1.00;;;;;;5013971;28;20444;-73
2022/08/23 01:48:40;;;;;;;4.40;2.83;;;17.90;1.00;;;;;;5024997;28;20606;-72
2022/08/23 01:51:06;;;;;;;3.73;2.77;;;17.90;1.00;;;;;;5027634;28;20528;-72
2022/08/23 01:53:33;;;;;;;9.80;2.93;;;17.90;1.00;;;;;;5016889;28;20433;-73
2022/08/23 01:56:00;;;;;;;5.23;2.90;;;17.80;1.00;;;;;;5026783;28;20372;-73
2022/08/23 01:58:28;;;;;;;2.60;2.40;;;17.80;1.00;;;;;;5020559;28;20438;-72
2022/08/23 02:00:54;;;;;;;2.83;2.60;;;17.80;1.00;;;;;;5027795;28;20444;-72
2022/08/23 02:03:20;;;;;;;3.40;2.60;;;17.70;1.00;;;;;;5017636;28;20463;-73
2022/08/23 02:05:48;;;;;;;5.00;3.27;;;17.70;1.00;;;;;;5031134;28;20512;-72
2022/08/23 02:11:35;;;;;;;3.77;3.10;;;17.70;1.00;;;;;;5023425;28;20518;-80
2022/08/23 02:14:19;;;;;;;8.07;2.70;;;17.60;1.00;;;;;;5020196;28;20401;-80
2022/08/23 02:16:55;;;;;;;3.60;2.93;;;17.60;1.00;;;;;;5015396;28;20433;-80
2022/08/23 02:19:37;;;;;;;6.33;2.90;;;17.60;1.00;;;;;;5015663;28;20880;-80
2022/08/23 02:22:05;;;;;;;2.93;2.50;;;17.60;1.00;;;;;;5025743;28;20449;-80
2022/08/23 02:28:03;;;;;;;8.50;3.07;;;17.50;1.00;;;;;;5035569;28;20460;-80
2022/08/23 02:30:44;;;;;;;5.40;2.43;;;17.40;1.00;;;;;;5036679;28;20869;-80
2022/08/23 02:33:11;;;;;;;4.40;2.93;;;17.40;1.00;;;;;;5029208;28;20422;-80
2022/08/23 02:35:37;;;;;;;7.80;2.70;;;17.40;1.00;;;;;;5030365;28;20437;-80
2022/08/23 02:38:08;;;;;;;9.20;3.80;;;17.40;1.00;;;;;;5018972;28;20760;-73
2022/08/23 02:40:34;;;;;;;3.93;2.67;;;17.40;1.00;;;;;;5030557;28;20420;-72
2022/08/23 02:43:00;;;;;;;2.73;2.50;;;17.30;1.00;;;;;;5023597;28;20421;-72
2022/08/23 02:45:30;;;;;;;3.40;2.63;;;17.40;1.00;;;;;;5036313;28;20401;-72
2022/08/23 02:47:56;;;;;;;5.37;3.20;;;17.30;1.00;;;;;;5017178;28;20441;-73
2022/08/23 02:50:22;;;;;;;5.20;2.60;;;17.30;1.00;;;;;;5031054;28;20469;-72
2022/08/23 02:53:00;;;;;;;3.03;2.80;;;17.30;1.00;;;;;;5033540;28;20182;-80
2022/08/23 02:55:36;;;;;;;3.43;2.90;;;17.30;1.00;;;;;;5016638;28;20428;-80
2022/08/23 02:58:35;;;;;;;3.80;2.87;;;17.30;1.00;;;;;;5033630;28;20466;-80
2022/08/23 03:01:24;;;;;;;4.60;2.80;;;17.20;1.00;;;;;;5022226;28;20408;-80
2022/08/23 03:04:30;;;;;;;5.77;2.87;;;17.20;1.00;;;;;;5034215;28;20470;-80
2022/08/23 03:07:00;;;;;;;3.00;2.70;;;17.20;1.00;;;;;;5035065;28;20464;-80
2022/08/23 03:09:36;;;;;;;3.73;2.70;;;17.20;1.00;;;;;;5018087;28;20816;-80
2022/08/23 03:15:23;;;;;;;3.07;2.77;;;17.20;1.00;;;;;;5015574;28;20506;-80
2022/08/23 03:18:29;;;;;;;3.33;2.77;;;17.20;1.00;;;;;;5015895;28;20448;-80
2022/08/23 03:21:00;;;;;;;7.83;3.23;;;17.10;1.00;;;;;;5015527;28;20177;-80
2022/08/23 03:23:31;;;;;;;2.73;2.50;;;17.10;1.00;;;;;;5027017;28;20407;-80
2022/08/23 03:26:07;;;;;;;6.10;2.80;;;17.10;1.00;;;;;;5017527;28;20403;-80
2022/08/23 03:28:44;;;;;;;3.63;3.20;;;17.10;1.00;;;;;;5015249;28;20425;-80
2022/08/23 03:31:18;;;;;;;6.03;3.00;;;17.10;1.00;;;;;;5015938;28;20471;-80
2022/08/23 03:33:44;;;;;;;6.40;3.20;;;17.10;1.00;;;;;;5024583;28;20412;-80
2022/08/23 03:36:19;;;;;;;7.27;3.00;;;17.00;1.00;;;;;;5026462;28;20409;-80
2022/08/23 03:38:44;;;;;;;7.43;3.23;;;17.00;1.00;;;;;;5016558;28;20250;-72
2022/08/23 03:41:11;;;;;;;4.30;2.97;;;17.00;1.00;;;;;;5029226;28;20531;-73
2022/08/23 03:43:37;;;;;;;7.90;3.47;;;17.00;1.00;;;;;;5017652;28;20182;-73
2022/08/23 03:46:06;;;;;;;5.13;3.10;;;17.00;1.00;;;;;;5033835;28;20815;-73
2022/08/23 03:48:32;;;;;;;10.27;3.23;;;16.90;1.00;;;;;;5030369;28;20442;-73
2022/08/23 03:50:59;;;;;;;4.03;3.07;;;17.00;1.00;;;;;;5026076;28;20550;-73
2022/08/23 03:56:53;;;;;;;4.83;2.93;;;16.90;1.00;;;;;;5015045;28;20449;-80
2022/08/23 03:59:41;;;;;;;4.83;3.30;;;16.90;1.00;;;;;;5034506;28;20446;-80
2022/08/23 04:02:18;;;;;;;4.73;3.40;;;16.90;1.00;;;;;;5030318;28;20504;-80
2022/08/23 04:04:44;;;;;;;7.30;3.80;;;16.90;1.00;;;;;;5014764;28;20453;-80
2022/08/23 04:08:05;;;;;;;5.03;3.20;;;16.80;1.00;;;;;;5025287;28;20433;-83
2022/08/23 04:11:17;;;;;;;5.63;3.47;;;16.80;1.00;;;;;;5027049;28;20468;-79
2022/08/23 04:13:43;;;;;;;6.07;3.63;;;16.70;1.00;;;;;;5032887;28;20423;-80
2022/08/23 04:16:43;;;;;;;4.27;3.57;;;16.70;1.00;;;;;;5027590;28;20408;-79
2022/08/23 04:19:18;;;;;;;4.50;3.73;;;16.70;1.00;;;;;;5024137;28;20673;-79
2022/08/23 04:21:54;;;;;;;3.60;3.30;;;16.60;1.00;;;;;;5034224;28;20355;-79
2022/08/23 04:24:20;;;;;;;9.53;3.50;;;16.60;1.00;;;;;;5032469;28;20406;-79
2022/08/23 04:27:00;;;;;;;3.80;3.43;;;16.60;1.00;;;;;;5034086;28;21171;-79
2022/08/23 04:29:59;;;;;;;13.83;3.50;;;16.60;1.00;;;;;;5033871;28;20187;-77
2022/08/23 04:32:25;;;;;;;5.93;3.70;;;16.50;1.00;;;;;;5034337;28;20399;-78
2022/08/23 04:35:00;;;;;;;5.07;3.40;;;16.50;1.00;;;;;;5032463;28;20514;-77
2022/08/23 04:37:59;;;;;;;6.20;3.50;;;16.50;1.00;;;;;;5033817;28;20406;-77
2022/08/23 04:43:49;;;;;;;4.63;3.40;;;16.50;1.00;;;;;;5016055;28;20761;-79
2022/08/23 04:46:35;;;;;;;6.53;3.77;;;16.60;1.00;;;;;;5015160;28;20393;-79
2022/08/23 04:49:02;;;;;;;6.50;3.63;;;16.50;1.00;;;;;;5026193;28;20436;-79
2022/08/23 04:51:59;;;;;;;6.00;4.00;;;16.50;1.00;;;;;;5030773;28;20451;-80
2022/08/23 04:54:25;;;;;;;5.67;3.70;;;16.40;1.00;;;;;;5023324;28;20493;-77
2022/08/23 04:57:24;;;;;;;11.20;4.40;;;16.40;1.00;;;;;;5018488;28;20509;-77
2022/08/23 05:00:23;;;;;;;7.27;4.17;;;16.50;1.00;;;;;;5020104;28;20415;-78
2022/08/23 05:02:49;;;;;;;7.93;4.20;;;16.50;1.00;;;;;;5020039;28;20432;-76
2022/08/23 05:05:19;;;;;;;6.53;3.70;;;16.50;1.00;;;;;;5033516;28;20489;-77
2022/08/23 05:08:00;;;;;;;11.90;4.60;;;16.60;1.00;;;;;;5022663;28;20430;-77
2022/08/23 05:10:26;;;;;;;7.37;4.03;;;16.60;1.00;;;;;;5015007;28;20975;-76
2022/08/23 05:13:17;;;;;;;10.03;3.57;;;16.70;1.00;;;;;;5033394;28;20506;-77
2022/08/23 05:16:30;;;;;;;6.30;3.63;;;16.70;1.00;;;;;;5032810;28;20176;-77
2022/08/23 05:19:29;;;;;;;5.50;3.80;;;16.70;1.00;;;;;;5014264;28;21594;-77
2022/08/23 05:22:00;;;;;;;10.93;4.33;;;16.80;1.00;;;;;;5028660;28;20501;-77
2022/08/23 05:24:42;;;;;;;7.33;3.50;;;16.90;1.00;;;;;;5024004;28;20412;-79
2022/08/23 05:27:08;;;;;;;6.67;3.43;;;16.90;1.00;;;;;;5028627;28;20753;-80
2022/08/23 05:29:59;;;;;;;5.90;4.03;;;17.00;1.00;;;;;;5022013;28;20515;-79
2022/08/23 05:32:59;;;;;;;8.60;4.00;;;17.00;1.00;;;;;;5030018;28;20481;-80
2022/08/23 05:35:31;;;;;;;10.67;4.03;;;17.10;1.00;;;;;;5030484;28;20602;-79
2022/08/23 05:38:12;;;;;;;7.37;4.07;;;17.20;1.00;;;;;;5031247;28;20459;-80
2022/08/23 05:41:01;;;;;;;7.83;3.30;;;17.30;1.00;;;;;;5025761;28;20434;-79
2022/08/23 05:43:36;;;;;;;10.33;3.43;;;17.40;1.00;;;;;;5034646;28;20436;-80
2022/08/23 05:49:30;;;;;;;4.17;3.67;;;17.50;1.00;;;;;;5026726;28;20416;-79
2022/08/23 05:52:12;;;;;;;9.30;3.10;;;17.60;1.00;;;;;;5021303;28;20423;-79
2022/08/23 05:55:17;;;;;;;15.17;4.00;;;17.70;1.00;;;;;;5037564;28;20401;-76
2022/08/23 05:57:49;;;;;;;5.57;3.50;;;17.80;1.00;;;;;;5025600;28;20416;-78
2022/08/23 06:00:15;;;;;;;10.20;3.80;;;17.90;1.00;;;;;;5023364;28;20419;-77
2022/08/23 06:02:48;;;;;;;8.23;4.17;;;18.00;1.00;;;;;;5028446;28;20459;-77
2022/08/23 06:05:18;;;;;;;7.70;3.60;;;18.10;1.00;;;;;;5023533;28;20190;-76
2022/08/23 06:07:48;;;;;;;24.97;4.00;;;18.30;1.00;;;;;;5023551;28;20404;-76
2022/08/23 06:10:15;;;;;;;4.17;3.27;;;18.40;1.00;;;;;;5024348;28;20461;-77
2022/08/23 06:13:05;;;;;;;5.73;3.37;;;18.50;1.00;;;;;;5019424;28;20538;-77
2022/08/23 06:15:31;;;;;;;10.30;3.83;;;18.60;1.00;;;;;;5017944;28;20438;-76
2022/08/23 06:17:57;;;;;;;13.20;4.13;;;18.70;1.00;;;;;;5020319;28;20417;-77
2022/08/23 06:20:22;;;;;;;10.83;4.00;;;18.90;1.00;;;;;;5020589;28;20637;-76
2022/08/23 06:22:54;;;;;;;19.73;4.40;;;19.00;1.00;;;;;;5029080;28;20196;-77
2022/08/23 06:25:19;;;;;;;4.40;2.90;;;19.10;1.00;;;;;;5024131;28;20687;-76
2022/08/23 06:27:46;;;;;;;6.30;3.70;;;19.30;1.00;;;;;;5027107;28;20431;-77
2022/08/23 06:30:11;;;;;;;6.07;3.80;;;19.40;1.00;;;;;;5035627;28;20591;-76
2022/08/23 06:32:37;;;;;;;5.37;3.00;;;19.50;1.00;;;;;;5035360;28;20559;-76
2022/08/23 06:35:03;;;;;;;6.30;3.70;;;19.60;1.00;;;;;;5026863;28;20431;-76
2022/08/23 06:37:30;;;;;;;5.33;3.67;;;19.70;1.00;;;;;;5031690;28;20190;-76
2022/08/23 06:39:57;;;;;;;4.50;3.23;;;19.90;1.00;;;;;;5029922;28;20184;-80
2022/08/23 06:42:23;;;;;;;8.50;3.53;;;20.00;1.00;;;;;;5030846;28;20937;-84
2022/08/23 06:44:50;;;;;;;11.70;3.60;;;20.10;1.00;;;;;;5034224;28;20431;-83
2022/08/23 06:47:16;;;;;;;9.03;3.50;;;20.20;1.00;;;;;;5030406;28;20836;-84
2022/08/23 06:49:41;;;;;;;3.33;3.03;;;20.40;1.00;;;;;;5027403;28;20459;-83
2022/08/23 06:52:08;;;;;;;5.43;2.97;;;20.50;1.00;;;;;;5024557;28;20934;-91
2022/08/23 06:54:35;;;;;;;7.17;3.20;;;20.60;1.00;;;;;;5026078;28;20185;-74
2022/08/23 06:57:02;;;;;;;4.80;3.17;;;20.80;1.00;;;;;;5028724;28;20447;-68
2022/08/23 06:59:28;;;;;;;9.13;3.93;;;20.90;1.00;;;;;;5029647;28;20511;-68
2022/08/23 07:02:05;;;;;;;4.63;3.10;;;20.90;1.00;;;;;;5026111;28;20421;-68
2022/08/23 07:04:36;;;;;;;4.17;2.90;;;21.00;1.00;;;;;;5028868;28;20443;-68
2022/08/23 07:07:02;;;;;;;6.87;3.10;;;21.20;1.00;;;;;;5014944;28;20433;-68
2022/08/23 07:09:29;;;;;;;3.23;3.00;;;21.30;1.00;;;;;;5019742;28;20449;-68
2022/08/23 07:11:55;;;;;;;5.40;3.40;;;21.50;1.00;;;;;;5025118;28;20482;-73
2022/08/23 07:14:22;;;;;;;4.77;3.13;;;21.60;1.00;;;;;;5016920;28;20426;-73
2022/08/23 07:16:52;;;;;;;5.43;2.83;;;21.60;1.00;;;;;;5028282;28;20187;-73
2022/08/23 07:19:20;;;;;;;5.13;3.63;;;21.80;1.00;;;;;;5015854;28;20476;-74
2022/08/23 07:21:47;;;;;;;6.97;2.90;;;21.90;1.00;;;;;;5024624;28;20495;-73
2022/08/23 07:24:15;;;;;;;8.23;3.13;;;22.00;1.00;;;;;;5015285;28;20510;-73
2022/08/23 07:26:42;;;;;;;3.33;2.80;;;22.10;1.00;;;;;;5011252;28;20445;-68
2022/08/23 07:29:10;;;;;;;44.37;3.70;;;22.20;1.00;;;;;;5029340;28;20466;-68
2022/08/23 07:31:40;;;;;;;5.17;2.63;;;22.40;1.00;;;;;;5028621;28;20609;-68
2022/08/23 07:34:07;;;;;;;4.77;2.93;;;22.50;1.00;;;;;;5023526;28;20415;-68
2022/08/23 07:36:34;;;;;;;4.53;3.00;;;22.60;1.00;;;;;;5025934;28;20913;-68
2022/08/23 07:38:59;;;;;;;7.17;2.93;;;22.70;1.00;;;;;;5027188;28;20417;-68
2022/08/23 07:41:30;;;;;;;8.60;2.97;;;22.80;1.00;;;;;;5014802;28;20482;-68
2022/08/23 07:43:57;;;;;;;4.90;2.90;;;22.90;1.00;;;;;;5014787;28;20182;-68
2022/08/23 07:46:24;;;;;;;4.73;2.50;;;23.00;1.00;;;;;;5019698;28;20424;-68
2022/08/23 07:48:51;;;;;;;12.03;2.83;;;23.20;1.00;;;;;;5014477;28;20432;-68
2022/08/23 07:51:18;;;;;;;4.93;2.70;;;23.30;1.00;;;;;;5021310;28;20967;-68
2022/08/23 07:53:46;;;;;;;3.73;2.63;;;23.40;1.00;;;;;;5014313;28;20417;-68
2022/08/23 07:56:14;;;;;;;5.03;2.93;;;23.50;1.00;;;;;;5014126;28;20425;-68
2022/08/23 07:58:40;;;;;;;6.40;2.47;;;23.70;1.00;;;;;;5029006;28;20440;-68
2022/08/23 08:01:16;;;;;;;3.83;2.50;;;23.80;1.00;;;;;;5018901;28;20738;-68
2022/08/23 08:03:43;;;;;;;6.07;2.80;;;23.90;1.00;;;;;;5014054;28;20431;-68
2022/08/23 08:06:11;;;;;;;9.80;2.90;;;24.00;1.00;;;;;;5017382;28;20803;-68
2022/08/23 08:08:39;;;;;;;3.60;2.60;;;24.10;1.00;;;;;;5015131;28;20461;-68
2022/08/23 08:11:06;;;;;;;2.60;2.40;;;24.20;1.00;;;;;;5019424;28;20813;-68
2022/08/23 08:13:33;;;;;;;4.60;2.73;;;24.40;1.00;;;;;;5021416;28;20423;-68
2022/08/23 08:15:59;;;;;;;6.53;2.37;;;24.50;1.00;;;;;;5018028;28;20794;-68
2022/08/23 08:18:25;;;;;;;3.73;2.53;;;24.60;1.00;;;;;;5032104;28;20429;-68
2022/08/23 08:20:50;;;;;;;3.70;2.40;;;24.70;1.00;;;;;;5020808;28;20265;-69
2022/08/23 08:23:16;;;;;;;4.33;2.40;;;24.90;1.00;;;;;;5022973;28;20267;-68
2022/08/23 08:25:42;;;;;;;4.80;2.80;;;25.10;1.00;;;;;;5013457;28;20187;-68
2022/08/23 08:28:08;;;;;;;4.50;2.30;;;25.20;1.00;;;;;;5013355;28;20811;-68
2022/08/23 08:30:33;;;;;;;3.00;2.70;;;25.30;1.00;;;;;;5013800;28;20301;-68
2022/08/23 08:32:59;;;;;;;3.70;2.53;;;25.40;1.00;;;;;;5016411;28;20256;-68
2022/08/23 08:35:25;;;;;;;3.33;2.20;;;25.60;1.00;;;;;;5014501;28;20186;-69
2022/08/23 08:37:50;;;;;;;5.93;2.87;;;25.70;1.00;;;;;;5024766;28;20383;-69
2022/08/23 08:40:27;;;;;;;12.70;2.60;;;25.70;1.00;;;;;;5013163;28;20202;-68
2022/08/23 08:43:04;;;;;;;2.70;2.50;;;25.90;1.00;;;;;;5013649;28;20196;-68
2022/08/23 08:45:44;;;;;;;2.70;2.50;;;26.00;1.00;;;;;;5013372;28;20575;-68
2022/08/23 08:48:14;;;;;;;3.03;2.60;;;26.10;1.00;;;;;;5013241;28;20429;-68
2022/08/23 08:50:48;;;;;;;3.30;2.70;;;26.30;1.00;;;;;;5021673;28;20469;-69
2022/08/23 08:53:50;;;;;;;3.50;2.53;;;26.50;1.00;;;;;;5016274;28;20442;-69
2022/08/23 08:56:26;;;;;;;4.10;2.37;;;26.70;1.00;;;;;;5033242;28;20447;-69
2022/08/23 08:58:54;;;;;;;3.23;2.40;;;26.70;1.00;;;;;;5033118;28;20437;-68
2022/08/23 09:01:23;;;;;;;10.73;2.60;;;26.60;1.00;;;;;;5030429;28;20923;-69
2022/08/23 09:03:49;;;;;;;5.60;2.63;;;26.70;1.00;;;;;;5030599;28;20431;-69
2022/08/23 09:06:24;;;;;;;2.90;2.50;;;26.80;1.00;;;;;;5029650;28;20425;-69
2022/08/23 09:08:58;;;;;;;2.40;2.20;;;27.00;1.00;;;;;;5030392;28;20200;-69
2022/08/23 09:11:58;;;;;;;2.83;2.37;;;27.20;1.00;;;;;;5030588;28;20464;-69
2022/08/23 09:14:42;;;;;;;4.10;2.30;;;27.30;1.00;;;;;;5030396;28;20428;-69
2022/08/23 09:17:19;;;;;;;2.80;2.33;;;27.40;1.00;;;;;;5030239;28;20419;-69
2022/08/23 09:19:48;;;;;;;5.23;2.70;;;27.50;1.00;;;;;;5030512;28;20415;-69
2022/08/23 09:22:20;;;;;;;2.57;2.37;;;27.60;1.00;;;;;;5029935;28;21016;-69
2022/08/23 09:24:46;;;;;;;3.97;2.50;;;27.70;1.00;;;;;;5030271;28;20431;-69
2022/08/23 09:27:12;;;;;;;6.07;2.33;;;27.70;1.00;;;;;;5030128;28;20790;-69
2022/08/23 09:29:49;;;;;;;9.37;2.47;;;27.70;1.00;;;;;;5030806;28;20197;-69
2022/08/23 09:32:31;;;;;;;4.33;2.30;;;27.80;1.00;;;;;;5032288;28;20281;-69
2022/08/23 09:35:11;;;;;;;3.70;2.30;;;28.00;1.00;;;;;;5031245;28;20436;-69
2022/08/23 09:38:01;;;;;;;3.43;2.33;;;28.10;1.00;;;;;;5019305;28;20974;-69
2022/08/23 09:40:32;;;;;;;3.00;2.27;;;28.20;1.00;;;;;;5012682;28;20475;-69
2022/08/23 09:43:17;;;;;;;4.37;2.30;;;28.20;1.00;;;;;;5017143;28;20426;-74
2022/08/23 09:45:49;;;;;;;5.00;2.27;;;28.30;1.00;;;;;;5012704;28;20418;-74
2022/08/23 09:48:30;;;;;;;3.93;2.53;;;28.40;1.00;;;;;;5016635;28;20514;-73
2022/08/23 09:51:17;;;;;;;3.40;2.43;;;28.50;1.00;;;;;;5026546;28;20889;-73
2022/08/23 09:53:49;;;;;;;8.53;2.60;;;28.60;1.00;;;;;;5022578;28;20415;-73
2022/08/23 09:56:25;;;;;;;6.73;2.27;;;28.70;1.00;;;;;;5018331;28;20422;-73
2022/08/23 09:58:52;;;;;;;4.90;2.40;;;28.70;1.00;;;;;;5030102;28;20895;-73
2022/08/23 10:01:24;;;;;;;2.40;2.20;;;28.70;1.00;;;;;;5017515;28;20438;-73
2022/08/23 10:04:14;;;;;;;4.20;2.40;;;28.80;1.00;;;;;;5022503;28;20419;-73
2022/08/23 10:06:44;;;;;;;5.83;2.40;;;28.90;1.00;;;;;;5032214;28;20417;-73
2022/08/23 10:09:22;;;;;;;2.67;2.47;;;29.10;1.00;;;;;;5021783;28;20481;-73
2022/08/23 10:11:48;;;;;;;4.37;2.80;;;29.10;1.00;;;;;;5025648;28;20467;-74
2022/08/23 10:14:21;;;;;;;3.33;2.70;;;29.30;1.00;;;;;;5020189;28;20521;-80
2022/08/23 10:17:11;;;;;;;6.27;2.60;;;29.30;1.00;;;;;;5016971;28;20194;-81
2022/08/23 10:19:39;;;;;;;4.37;2.30;;;29.40;1.00;;;;;;5020914;28;20411;-80
2022/08/23 10:22:21;;;;;;;5.23;2.73;;;29.50;1.00;;;;;;5015727;28;20474;-80
2022/08/23 10:25:03;;;;;;;3.83;2.67;;;29.50;1.00;;;;;;5025137;28;20416;-80
2022/08/23 10:31:01;;;;;;;4.30;2.50;;;29.40;1.00;;;;;;5017817;28;20831;-80
2022/08/23 10:33:49;;;;;;;2.90;2.37;;;29.40;1.00;;;;;;5015840;28;20427;-80
2022/08/23 10:36:37;;;;;;;4.67;2.87;;;29.60;1.00;;;;;;5027197;28;20818;-80
2022/08/23 10:39:17;;;;;;;4.17;2.47;;;29.60;1.00;;;;;;5024309;28;20470;-81
2022/08/23 10:42:04;;;;;;;4.07;2.37;;;29.80;1.00;;;;;;5022875;28;20938;-81
2022/08/23 10:44:54;;;;;;;6.00;2.60;;;30.10;1.00;;;;;;5025588;28;20470;-74
2022/08/23 10:47:29;;;;;;;8.37;2.70;;;30.20;1.00;;;;;;5026733;28;20431;-74
2022/08/23 10:49:59;;;;;;;6.73;2.37;;;30.10;1.00;;;;;;5026617;28;20480;-74
2022/08/23 10:52:56;;;;;;;2.87;2.67;;;30.20;1.00;;;;;;5035564;28;20435;-77
2022/08/23 10:56:01;;;;;;;11.13;3.27;;;30.40;1.00;;;;;;5022635;28;20434;-76
2022/08/23 10:58:46;;;;;;;3.87;2.57;;;30.50;1.00;;;;;;5024089;28;20450;-81
2022/08/23 11:01:25;;;;;;;3.13;2.80;;;30.60;1.00;;;;;;5023972;28;20477;-78
2022/08/23 11:04:06;;;;;;;4.10;2.57;;;30.60;1.00;;;;;;5024274;28;20538;-80
2022/08/23 11:06:34;;;;;;;3.83;2.40;;;30.70;1.00;;;;;;5025248;28;20437;-77
2022/08/23 11:09:05;;;;;;;3.03;2.53;;;30.80;1.00;;;;;;5021248;28;20434;-79
2022/08/23 11:11:57;;;;;;;2.70;2.47;;;31.00;1.00;;;;;;5021239;28;20472;-80
2022/08/23 11:14:54;;;;;;;3.03;2.50;;;31.20;1.00;;;;;;5029301;28;20936;-75
2022/08/23 11:17:28;;;;;;;5.13;2.10;;;31.30;1.00;;;;;;5029475;28;20428;-79
2022/08/23 11:19:57;;;;;;;5.43;2.60;;;31.30;1.00;;;;;;5017251;28;20891;-75
2022/08/23 11:22:53;;;;;;;3.17;2.43;;;31.40;1.00;;;;;;5033991;28;20435;-75
2022/08/23 11:25:18;;;;;;;6.03;2.40;;;31.50;1.00;;;;;;5024008;28;20443;-75
2022/08/23 11:27:45;;;;;;;4.03;2.10;;;31.60;1.00;;;;;;5041185;28;20454;-76
2022/08/23 11:30:35;;;;;;;6.10;2.40;;;31.70;1.00;;;;;;5030605;28;20255;-75
2022/08/23 11:33:25;;;;;;;2.83;2.13;;;31.70;1.00;;;;;;5029312;28;20435;-75
2022/08/23 11:35:54;;;;;;;3.20;2.90;;;31.60;1.00;;;;;;5024003;28;20412;-75
2022/08/23 11:38:45;;;;;;;2.77;2.50;;;31.50;1.00;;;;;;5019904;28;20915;-75
2022/08/23 11:41:18;;;;;;;4.30;2.13;;;31.30;1.00;;;;;;5014845;28;20423;-75
2022/08/23 11:47:09;;;;;;;8.83;2.80;;;31.40;1.00;;;;;;5032840;28;20434;-85
2022/08/23 11:50:26;;;;;;;6.47;2.87;;;31.60;1.00;;;;;;5015816;28;20455;-83
2022/08/23 11:53:24;;;;;;;6.00;2.60;;;31.70;1.00;;;;;;4962750;28;20425;-83
2022/08/23 11:56:08;;;;;;;6.50;2.60;;;31.90;1.00;;;;;;4973920;28;20488;-83
2022/08/23 11:59:01;;;;;;;15.00;2.50;;;32.00;1.00;;;;;;4974099;28;20417;-74
2022/08/23 12:01:35;;;;;;;11.20;2.73;;;32.10;1.00;;;;;;4959944;28;20437;-75
2022/08/23 12:04:26;;;;;;;2.90;2.47;;;32.30;1.00;;;;;;4959313;28;20873;-74
2022/08/23 12:06:56;;;;;;;5.43;2.50;;;32.50;1.00;;;;;;4959279;28;20438;-74
2022/08/23 12:09:22;;;;;;;3.00;2.40;;;32.80;1.00;;;;;;4971772;28;20528;-74
2022/08/23 12:11:54;;;;;;;4.93;3.07;;;32.70;1.00;;;;;;4968785;28;20526;-74
2022/08/23 12:14:44;;;;;;;3.73;2.33;;;32.60;1.00;;;;;;4958929;28;20191;-80
2022/08/23 12:17:54;;;;;;;2.70;2.33;;;32.50;1.00;;;;;;4971546;28;20426;-82
2022/08/23 12:20:37;;;;;;;2.63;2.40;;;32.40;1.00;;;;;;4973819;28;20445;-79
2022/08/23 12:23:12;;;;;;;2.57;2.37;;;32.00;1.00;;;;;;4973305;28;20894;-79
2022/08/23 12:25:38;;;;;;;8.43;2.87;;;31.80;1.00;;;;;;4973150;28;20539;-80
2022/08/23 12:28:43;;;;;;;4.73;2.67;;;31.70;1.00;;;;;;4986750;28;20439;-79
2022/08/23 12:31:26;;;;;;;2.53;2.20;;;31.60;1.00;;;;;;5019301;28;20471;-74
2022/08/23 12:33:56;;;;;;;5.30;2.80;;;31.50;1.00;;;;;;5012261;28;20522;-74
2022/08/23 12:36:37;;;;;;;2.50;2.30;;;31.40;1.00;;;;;;5025624;28;20934;-75
2022/08/23 12:39:20;;;;;;;4.37;2.60;;;31.40;1.00;;;;;;5012383;28;20422;-75
2022/08/23 12:42:18;;;;;;;2.97;2.47;;;31.70;1.00;;;;;;5019783;28;20446;-75
2022/08/23 12:44:56;;;;;;;4.33;2.60;;;32.10;1.00;;;;;;5031019;28;20462;-75
2022/08/23 12:47:24;;;;;;;3.63;2.10;;;32.10;1.00;;;;;;5030500;28;20460;-76
2022/08/23 12:50:22;;;;;;;2.90;2.53;;;32.10;1.00;;;;;;5017856;28;20420;-76
2022/08/23 12:53:02;;;;;;;2.20;2.10;;;32.10;1.00;;;;;;5012133;28;20445;-76
2022/08/23 12:55:37;;;;;;;3.40;2.60;;;31.90;1.00;;;;;;5023259;28;20435;-74
2022/08/23 12:58:07;;;;;;;5.70;2.50;;;32.30;1.00;;;;;;5024056;28;20423;-83
2022/08/23 13:00:35;;;;;;;3.67;2.50;;;32.60;1.00;;;;;;5029458;28;20510;-77
2022/08/23 13:03:18;;;;;;;4.10;2.60;;;32.90;1.00;;;;;;5030659;28;20591;-77
2022/08/23 13:05:47;;;;;;;3.37;2.60;;;33.10;1.00;;;;;;5026784;28;20470;-78
2022/08/23 13:08:30;;;;;;;2.97;2.70;;;33.30;1.00;;;;;;5015739;28;20462;-74
2022/08/23 13:11:08;;;;;;;5.90;2.47;;;33.50;1.00;;;;;;5020244;28;20470;-73
2022/08/23 13:13:40;;;;;;;3.13;2.27;;;33.70;1.00;;;;;;5021320;28;20514;-73
2022/08/23 13:16:39;;;;;;;5.03;2.97;;;33.90;1.00;;;;;;5026878;28;20442;-73
2022/08/23 13:19:28;;;;;;;2.67;2.23;;;34.10;1.00;;;;;;5014382;28;20440;-73
2022/08/23 13:22:21;;;;;;;6.90;2.93;;;34.20;1.00;;;;;;5022776;28;20407;-73
2022/08/23 13:25:09;;;;;;;6.03;2.13;;;34.20;1.00;;;;;;5016773;28;20502;-74
2022/08/23 13:27:44;;;;;;;3.30;2.10;;;34.30;1.00;;;;;;5027471;28;20964;-75
2022/08/23 13:30:09;;;;;;;2.73;2.53;;;34.50;1.00;;;;;;5027519;28;20560;-73
2022/08/23 13:32:43;;;;;;;2.43;2.20;;;34.40;1.00;;;;;;5017337;28;20555;-74
2022/08/23 13:35:24;;;;;;;2.53;2.30;;;34.40;1.00;;;;;;5019798;28;20189;-74
2022/08/23 13:37:52;;;;;;;4.23;2.40;;;34.60;1.00;;;;;;5013832;28;20450;-74
2022/08/23 13:40:25;;;;;;;7.23;2.40;;;34.70;1.00;;;;;;5025367;28;20427;-74
2022/08/23 13:43:37;;;;;;;6.83;3.00;;;34.80;1.00;;;;;;5013641;28;20431;-74
2022/08/23 13:46:42;;;;;;;7.50;2.43;;;34.80;1.00;;;;;;5030879;28;20534;-80
2022/08/23 13:49:34;;;;;;;2.67;2.47;;;34.70;1.00;;;;;;5030844;28;20410;-80
2022/08/23 13:52:12;;;;;;;2.80;2.57;;;34.90;1.00;;;;;;5015992;28;20514;-80
2022/08/23 13:54:43;;;;;;;5.17;2.60;;;35.10;1.00;;;;;;5023672;28;20923;-80
2022/08/23 13:57:14;;;;;;;5.43;2.50;;;35.30;1.00;;;;;;5002447;28;20795;-80
2022/08/23 13:59:54;;;;;;;4.60;2.50;;;35.30;1.00;;;;;;5025749;28;20796;-81
2022/08/23 14:02:25;;;;;;;2.50;2.30;;;35.50;1.00;;;;;;5026683;28;20446;-80
2022/08/23 14:04:54;;;;;;;4.27;2.60;;;35.60;1.00;;;;;;5016092;28;20524;-82
2022/08/23 14:07:24;;;;;;;2.57;2.37;;;35.70;1.00;;;;;;5027483;28;20940;-80
2022/08/23 14:10:00;;;;;;;5.43;2.37;;;35.70;1.00;;;;;;5023158;28;20893;-78
2022/08/23 14:12:29;;;;;;;3.70;2.47;;;35.80;1.00;;;;;;5022150;28;20419;-78